createdAt,value
2023-05-16T00:05:31.611Z,5
2023-05-16T00:20:33.337Z,5
2023-05-16T00:35:35.096Z,7
2023-05-16T00:50:36.810Z,6
2023-05-16T01:05:38.515Z,9
2023-05-16T01:20:40.251Z,9
2023-05-16T01:35:41.997Z,10
2023-05-16T01:50:43.709Z,11
2023-05-16T02:05:45.492Z,6
2023-05-16T02:20:47.250Z,3
2023-05-16T02:35:48.962Z,3
2023-05-16T02:50:50.682Z,2
2023-05-16T03:05:52.393Z,1
2023-05-16T03:20:54.106Z,0
2023-05-16T03:35:55.860Z,0
2023-05-16T03:50:57.549Z,0
2023-05-16T04:05:59.344Z,0
2023-05-16T04:21:01.193Z,0
2023-05-16T04:36:02.968Z,0
2023-05-16T04:51:04.683Z,0
2023-05-16T05:06:06.471Z,0
2023-05-16T05:21:08.186Z,0
2023-05-16T05:36:09.919Z,0
2023-05-16T05:51:11.600Z,0
2023-05-16T06:06:13.385Z,0
2023-05-16T06:21:15.068Z,0
2023-05-16T06:36:16.814Z,0
2023-05-16T06:51:18.535Z,0
2023-05-16T07:06:21.115Z,0
2023-05-16T07:21:22.802Z,0
2023-05-16T07:36:24.527Z,0
2023-05-16T07:51:26.261Z,0
2023-05-16T08:06:27.983Z,0
2023-05-16T08:21:29.674Z,0
2023-05-16T08:36:31.404Z,0
2023-05-16T08:51:33.141Z,0
2023-05-16T09:06:34.905Z,0
2023-05-16T09:21:36.595Z,0
2023-05-16T09:36:38.305Z,0
2023-05-16T09:51:40.052Z,0
2023-05-16T10:06:41.783Z,0
2023-05-16T10:21:43.486Z,0
2023-05-16T10:36:45.203Z,0
2023-05-16T10:51:46.950Z,0
2023-05-16T11:06:48.718Z,0
2023-05-16T11:21:50.420Z,0
2023-05-16T11:36:52.157Z,0
2023-05-16T11:51:53.915Z,0
2023-05-16T12:06:55.615Z,0
2023-05-16T12:21:57.355Z,0
2023-05-16T12:36:59.069Z,1
2023-05-16T12:52:00.808Z,2
2023-05-16T13:07:02.522Z,3
2023-05-16T13:22:04.249Z,3
2023-05-16T13:37:05.957Z,4
2023-05-16T13:52:07.719Z,5
2023-05-16T14:07:09.502Z,6
2023-05-16T14:22:11.222Z,6
2023-05-16T14:37:12.923Z,6
2023-05-16T14:52:14.657Z,7
2023-05-16T15:07:16.402Z,8
2023-05-16T15:22:18.098Z,6
2023-05-16T15:37:19.821Z,6
2023-05-16T15:52:22.991Z,10
2023-05-16T16:07:24.807Z,13
2023-05-16T16:22:26.527Z,16
2023-05-16T16:37:28.272Z,15
2023-05-16T16:52:29.970Z,22
2023-05-16T17:07:31.657Z,18
2023-05-16T17:22:33.386Z,18
2023-05-16T17:37:35.088Z,17
2023-05-16T17:52:36.822Z,16
2023-05-16T18:07:38.535Z,15
2023-05-16T18:22:40.238Z,15
2023-05-16T18:37:44.064Z,14
2023-05-16T18:52:46.011Z,16
2023-05-16T19:07:47.714Z,17
2023-05-16T19:22:49.356Z,20
2023-05-16T19:37:50.996Z,23
2023-05-16T19:52:52.706Z,27
2023-05-16T20:07:54.425Z,32
2023-05-16T20:22:56.270Z,39
2023-05-16T20:37:57.925Z,46
2023-05-16T20:52:59.585Z,47
2023-05-16T21:08:01.200Z,55
2023-05-16T21:23:02.830Z,53
2023-05-16T21:38:04.503Z,61
2023-05-16T21:53:06.151Z,55
2023-05-16T22:08:07.844Z,62
2023-05-16T22:23:09.494Z,62
2023-05-16T22:38:11.102Z,61
2023-05-16T22:53:12.748Z,46
2023-05-16T23:08:14.508Z,20
2023-05-16T23:23:16.227Z,22
2023-05-16T23:38:17.953Z,20
2023-05-16T23:53:19.675Z,16
